sensor_id;sensor_type;location;lat;lon;timestamp;temperature;humidity
1225;DHT22;602;48.000;7.840;2022-12-24T00:01:42;15.00;99.90
1225;DHT22;602;48.000;7.840;2022-12-24T00:04:09;15.00;99.90
1225;DHT22;602;48.000;7.840;2022-12-24T00:06:37;15.00;99.90
1225;DHT22;602;48.000;7.840;2022-12-24T00:09:04;15.00;99.90
1225;DHT22;602;48.000;7.840;2022-12-24T00:11:31;15.00;99.90
1225;DHT22;602;48.000;7.840;2022-12-24T00:13:58;15.00;99.90
1225;DHT22;602;48.000;7.840;2022-12-24T00:16:26;15.00;99.90
1225;DHT22;602;48.000;7.840;2022-12-24T00:18:53;15.00;99.90
1225;DHT22;602;48.000;7.840;2022-12-24T00:21:20;15.00;99.90
1225;DHT22;602;48.000;7.840;2022-12-24T00:23:48;14.90;99.90
1225;DHT22;602;48.000;7.840;2022-12-24T00:26:15;15.00;99.90
1225;DHT22;602;48.000;7.840;2022-12-24T00:28:42;14.90;99.90
1225;DHT22;602;48.000;7.840;2022-12-24T00:31:11;14.80;99.90
1225;DHT22;602;48.000;7.840;2022-12-24T00:33:38;14.80;99.90
1225;DHT22;602;48.000;7.840;2022-12-24T00:36:06;14.80;99.90
1225;DHT22;602;48.000;7.840;2022-12-24T00:38:33;14.80;99.90
1225;DHT22;602;48.000;7.840;2022-12-24T00:41:02;14.70;99.90
1225;DHT22;602;48.000;7.840;2022-12-24T00:43:30;14.80;99.90
1225;DHT22;602;48.000;7.840;2022-12-24T00:45:58;14.70;99.90
1225;DHT22;602;48.000;7.840;2022-12-24T00:48:24;14.70;99.90
1225;DHT22;602;48.000;7.840;2022-12-24T00:50:54;14.70;99.90
1225;DHT22;602;48.000;7.840;2022-12-24T00:53:21;14.70;99.90
1225;DHT22;602;48.000;7.840;2022-12-24T00:55:48;14.70;99.90
1225;DHT22;602;48.000;7.840;2022-12-24T00:58:16;14.60;99.90
1225;DHT22;602;48.000;7.840;2022-12-24T01:00:43;14.70;99.90
1225;DHT22;602;48.000;7.840;2022-12-24T01:03:10;14.70;99.90
1225;DHT22;602;48.000;7.840;2022-12-24T01:05:36;14.70;99.90
1225;DHT22;602;48.000;7.840;2022-12-24T01:08:02;14.60;99.90
1225;DHT22;602;48.000;7.840;2022-12-24T01:10:29;14.50;99.90
1225;DHT22;602;48.000;7.840;2022-12-24T01:12:56;14.50;99.90
1225;DHT22;602;48.000;7.840;2022-12-24T01:15:28;14.50;99.90
1225;DHT22;602;48.000;7.840;2022-12-24T01:17:55;14.60;99.90
1225;DHT22;602;48.000;7.840;2022-12-24T01:20:23;14.60;99.90
1225;DHT22;602;48.000;7.840;2022-12-24T01:22:51;14.60;99.90
1225;DHT22;602;48.000;7.840;2022-12-24T01:25:18;14.50;99.90
1225;DHT22;602;48.000;7.840;2022-12-24T01:27:45;14.50;99.90
1225;DHT22;602;48.000;7.840;2022-12-24T01:30:13;14.60;99.90
1225;DHT22;602;48.000;7.840;2022-12-24T01:32:41;14.60;99.90
1225;DHT22;602;48.000;7.840;2022-12-24T01:35:09;14.60;99.90
1225;DHT22;602;48.000;7.840;2022-12-24T01:37:37;14.60;99.90
1225;DHT22;602;48.000;7.840;2022-12-24T01:40:05;14.50;99.90
1225;DHT22;602;48.000;7.840;2022-12-24T01:42:52;14.40;99.90
1225;DHT22;602;48.000;7.840;2022-12-24T01:45:47;14.40;99.90
1225;DHT22;602;48.000;7.840;2022-12-24T01:48:25;14.40;99.90
1225;DHT22;602;48.000;7.840;2022-12-24T01:50:59;14.40;99.90
1225;DHT22;602;48.000;7.840;2022-12-24T01:53:27;14.40;99.90
1225;DHT22;602;48.000;7.840;2022-12-24T01:55:54;14.40;99.90
1225;DHT22;602;48.000;7.840;2022-12-24T01:58:22;14.40;99.90
1225;DHT22;602;48.000;7.840;2022-12-24T02:00:49;14.30;99.90
1225;DHT22;602;48.000;7.840;2022-12-24T02:03:17;14.30;99.90
1225;DHT22;602;48.000;7.840;2022-12-24T02:05:48;14.30;99.90
1225;DHT22;602;48.000;7.840;2022-12-24T02:08:17;14.30;99.90
1225;DHT22;602;48.000;7.840;2022-12-24T02:10:44;14.30;99.90
1225;DHT22;602;48.000;7.840;2022-12-24T02:13:11;14.30;99.90
1225;DHT22;602;48.000;7.840;2022-12-24T02:15:48;14.20;99.90
1225;DHT22;602;48.000;7.840;2022-12-24T02:18:21;14.10;99.90
1225;DHT22;602;48.000;7.840;2022-12-24T02:24:20;14.10;99.90
1225;DHT22;602;48.000;7.840;2022-12-24T02:27:08;14.10;99.90
1225;DHT22;602;48.000;7.840;2022-12-24T02:30:00;14.00;99.90
1225;DHT22;602;48.000;7.840;2022-12-24T02:32:40;14.00;99.90
1225;DHT22;602;48.000;7.840;2022-12-24T02:35:11;14.00;99.90
1225;DHT22;602;48.000;7.840;2022-12-24T02:37:42;14.00;99.90
1225;DHT22;602;48.000;7.840;2022-12-24T02:40:14;14.10;99.90
1225;DHT22;602;48.000;7.840;2022-12-24T02:42:45;14.10;99.90
1225;DHT22;602;48.000;7.840;2022-12-24T02:45:17;14.10;99.90
1225;DHT22;602;48.000;7.840;2022-12-24T02:47:47;14.10;99.90
1225;DHT22;602;48.000;7.840;2022-12-24T02:50:16;14.00;99.90
1225;DHT22;602;48.000;7.840;2022-12-24T02:52:45;14.00;99.90
1225;DHT22;602;48.000;7.840;2022-12-24T02:55:14;13.90;99.90
1225;DHT22;602;48.000;7.840;2022-12-24T03:00:44;13.80;99.90
1225;DHT22;602;48.000;7.840;2022-12-24T03:03:31;13.80;99.90
1225;DHT22;602;48.000;7.840;2022-12-24T03:06:07;13.80;99.90
1225;DHT22;602;48.000;7.840;2022-12-24T03:08:43;13.70;99.90
1225;DHT22;602;48.000;7.840;2022-12-24T03:11:11;13.80;99.90
1225;DHT22;602;48.000;7.840;2022-12-24T03:13:40;13.80;99.90
1225;DHT22;602;48.000;7.840;2022-12-24T03:16:10;13.80;99.90
1225;DHT22;602;48.000;7.840;2022-12-24T03:18:41;13.80;99.90
1225;DHT22;602;48.000;7.840;2022-12-24T03:21:12;13.80;99.90
1225;DHT22;602;48.000;7.840;2022-12-24T03:23:42;13.80;99.90
1225;DHT22;602;48.000;7.840;2022-12-24T03:26:11;13.80;99.90
1225;DHT22;602;48.000;7.840;2022-12-24T03:28:39;13.80;99.90
1225;DHT22;602;48.000;7.840;2022-12-24T03:31:10;13.70;99.90
1225;DHT22;602;48.000;7.840;2022-12-24T03:33:38;13.80;99.90
1225;DHT22;602;48.000;7.840;2022-12-24T03:36:06;13.70;99.90
1225;DHT22;602;48.000;7.840;2022-12-24T03:38:33;13.80;99.90
1225;DHT22;602;48.000;7.840;2022-12-24T03:41:01;13.70;99.90
1225;DHT22;602;48.000;7.840;2022-12-24T03:43:29;13.70;99.90
1225;DHT22;602;48.000;7.840;2022-12-24T03:45:56;13.70;99.90
1225;DHT22;602;48.000;7.840;2022-12-24T03:48:24;13.70;99.90
1225;DHT22;602;48.000;7.840;2022-12-24T03:50:51;13.80;99.90
1225;DHT22;602;48.000;7.840;2022-12-24T03:53:18;13.70;99.90
1225;DHT22;602;48.000;7.840;2022-12-24T03:55:46;13.60;99.90
1225;DHT22;602;48.000;7.840;2022-12-24T03:58:13;13.60;99.90
1225;DHT22;602;48.000;7.840;2022-12-24T04:00:39;13.70;99.90
1225;DHT22;602;48.000;7.840;2022-12-24T04:03:06;13.70;99.90
1225;DHT22;602;48.000;7.840;2022-12-24T04:05:34;13.60;99.90
1225;DHT22;602;48.000;7.840;2022-12-24T04:08:01;13.60;99.90
1225;DHT22;602;48.000;7.840;2022-12-24T04:10:28;13.60;99.90
1225;DHT22;602;48.000;7.840;2022-12-24T04:12:55;13.60;99.90
1225;DHT22;602;48.000;7.840;2022-12-24T04:15:22;13.60;99.90
1225;DHT22;602;48.000;7.840;2022-12-24T04:17:48;13.60;99.90
1225;DHT22;602;48.000;7.840;2022-12-24T04:20:15;13.60;99.90
1225;DHT22;602;48.000;7.840;2022-12-24T04:22:44;13.70;99.90
1225;DHT22;602;48.000;7.840;2022-12-24T04:25:11;13.60;99.90
1225;DHT22;602;48.000;7.840;2022-12-24T04:27:37;13.60;99.90
1225;DHT22;602;48.000;7.840;2022-12-24T04:30:05;13.60;99.90
1225;DHT22;602;48.000;7.840;2022-12-24T04:32:32;13.60;99.90
1225;DHT22;602;48.000;7.840;2022-12-24T04:34:59;13.60;99.90
1225;DHT22;602;48.000;7.840;2022-12-24T04:37:26;13.70;99.90
1225;DHT22;602;48.000;7.840;2022-12-24T04:39:54;13.60;99.90
1225;DHT22;602;48.000;7.840;2022-12-24T04:42:21;13.70;99.90
1225;DHT22;602;48.000;7.840;2022-12-24T04:44:48;13.70;99.90
1225;DHT22;602;48.000;7.840;2022-12-24T04:47:15;13.80;99.90
1225;DHT22;602;48.000;7.840;2022-12-24T04:49:41;13.80;99.90
1225;DHT22;602;48.000;7.840;2022-12-24T04:52:08;13.90;99.90
1225;DHT22;602;48.000;7.840;2022-12-24T04:54:35;13.80;99.90
1225;DHT22;602;48.000;7.840;2022-12-24T04:57:03;13.80;99.90
1225;DHT22;602;48.000;7.840;2022-12-24T04:59:30;13.80;99.90
1225;DHT22;602;48.000;7.840;2022-12-24T05:01:57;13.80;99.90
1225;DHT22;602;48.000;7.840;2022-12-24T05:04:24;13.70;99.90
1225;DHT22;602;48.000;7.840;2022-12-24T05:06:50;13.70;99.90
1225;DHT22;602;48.000;7.840;2022-12-24T05:09:17;13.60;99.90
1225;DHT22;602;48.000;7.840;2022-12-24T05:11:44;13.60;99.90
1225;DHT22;602;48.000;7.840;2022-12-24T05:14:12;13.60;99.90
1225;DHT22;602;48.000;7.840;2022-12-24T05:16:39;13.50;99.90
1225;DHT22;602;48.000;7.840;2022-12-24T05:19:06;13.40;99.90
1225;DHT22;602;48.000;7.840;2022-12-24T05:21:33;13.40;99.90
1225;DHT22;602;48.000;7.840;2022-12-24T05:24:00;13.50;99.90
1225;DHT22;602;48.000;7.840;2022-12-24T05:26:47;13.60;99.90
1225;DHT22;602;48.000;7.840;2022-12-24T05:29:16;13.50;99.90
1225;DHT22;602;48.000;7.840;2022-12-24T05:31:43;13.60;99.90
1225;DHT22;602;48.000;7.840;2022-12-24T05:34:11;13.70;99.90
1225;DHT22;602;48.000;7.840;2022-12-24T05:36:39;13.70;99.90
1225;DHT22;602;48.000;7.840;2022-12-24T05:39:06;13.70;99.90
1225;DHT22;602;48.000;7.840;2022-12-24T05:41:33;13.60;99.90
1225;DHT22;602;48.000;7.840;2022-12-24T05:44:00;13.60;99.90
1225;DHT22;602;48.000;7.840;2022-12-24T05:46:28;13.70;99.90
1225;DHT22;602;48.000;7.840;2022-12-24T05:48:55;13.70;99.90
1225;DHT22;602;48.000;7.840;2022-12-24T05:51:22;13.70;99.90
1225;DHT22;602;48.000;7.840;2022-12-24T05:53:50;13.70;99.90
1225;DHT22;602;48.000;7.840;2022-12-24T05:56:19;13.80;99.90
1225;DHT22;602;48.000;7.840;2022-12-24T05:58:46;13.80;99.90
1225;DHT22;602;48.000;7.840;2022-12-24T06:01:13;13.70;99.90
1225;DHT22;602;48.000;7.840;2022-12-24T06:03:41;13.80;99.90
1225;DHT22;602;48.000;7.840;2022-12-24T06:06:10;13.70;99.90
1225;DHT22;602;48.000;7.840;2022-12-24T06:08:38;13.80;99.90
1225;DHT22;602;48.000;7.840;2022-12-24T06:11:07;13.70;99.90
1225;DHT22;602;48.000;7.840;2022-12-24T06:13:35;13.80;99.90
1225;DHT22;602;48.000;7.840;2022-12-24T06:16:04;13.70;99.90
1225;DHT22;602;48.000;7.840;2022-12-24T06:18:33;13.70;99.90
1225;DHT22;602;48.000;7.840;2022-12-24T06:21:02;13.80;99.90
1225;DHT22;602;48.000;7.840;2022-12-24T06:23:31;13.70;99.90
1225;DHT22;602;48.000;7.840;2022-12-24T06:25:59;13.70;99.90
1225;DHT22;602;48.000;7.840;2022-12-24T06:28:26;13.70;99.90
1225;DHT22;602;48.000;7.840;2022-12-24T06:30:53;13.60;99.90
1225;DHT22;602;48.000;7.840;2022-12-24T06:33:20;13.50;99.90
1225;DHT22;602;48.000;7.840;2022-12-24T06:35:47;13.50;99.90
1225;DHT22;602;48.000;7.840;2022-12-24T06:38:15;13.40;99.90
1225;DHT22;602;48.000;7.840;2022-12-24T06:40:43;13.50;99.90
1225;DHT22;602;48.000;7.840;2022-12-24T06:43:11;13.50;99.90
1225;DHT22;602;48.000;7.840;2022-12-24T06:45:38;13.50;99.90
1225;DHT22;602;48.000;7.840;2022-12-24T06:48:05;13.50;99.90
1225;DHT22;602;48.000;7.840;2022-12-24T06:50:32;13.40;99.90
1225;DHT22;602;48.000;7.840;2022-12-24T06:52:59;13.30;99.90
1225;DHT22;602;48.000;7.840;2022-12-24T06:55:27;13.30;99.90
1225;DHT22;602;48.000;7.840;2022-12-24T06:57:54;13.30;99.90
1225;DHT22;602;48.000;7.840;2022-12-24T07:00:21;13.30;99.90
1225;DHT22;602;48.000;7.840;2022-12-24T07:02:48;13.30;99.90
1225;DHT22;602;48.000;7.840;2022-12-24T07:05:16;13.20;99.90
1225;DHT22;602;48.000;7.840;2022-12-24T07:07:44;13.30;99.90
1225;DHT22;602;48.000;7.840;2022-12-24T07:10:12;13.30;99.90
1225;DHT22;602;48.000;7.840;2022-12-24T07:12:41;13.30;99.90
1225;DHT22;602;48.000;7.840;2022-12-24T07:15:09;13.30;99.90
1225;DHT22;602;48.000;7.840;2022-12-24T07:17:36;13.40;99.90
1225;DHT22;602;48.000;7.840;2022-12-24T07:20:05;13.30;99.90
1225;DHT22;602;48.000;7.840;2022-12-24T07:22:32;13.40;99.90
1225;DHT22;602;48.000;7.840;2022-12-24T07:24:59;13.40;99.90
1225;DHT22;602;48.000;7.840;2022-12-24T07:27:26;13.30;99.90
1225;DHT22;602;48.000;7.840;2022-12-24T07:29:54;13.30;99.90
1225;DHT22;602;48.000;7.840;2022-12-24T07:32:21;13.30;99.90
1225;DHT22;602;48.000;7.840;2022-12-24T07:34:48;13.30;99.90
1225;DHT22;602;48.000;7.840;2022-12-24T07:37:15;13.20;99.90
1225;DHT22;602;48.000;7.840;2022-12-24T07:39:42;13.30;99.90
1225;DHT22;602;48.000;7.840;2022-12-24T07:42:08;13.40;99.90
1225;DHT22;602;48.000;7.840;2022-12-24T07:44:35;13.20;99.90
1225;DHT22;602;48.000;7.840;2022-12-24T07:47:03;13.30;99.90
1225;DHT22;602;48.000;7.840;2022-12-24T07:49:30;13.30;99.90
1225;DHT22;602;48.000;7.840;2022-12-24T07:51:57;13.40;99.90
1225;DHT22;602;48.000;7.840;2022-12-24T07:54:24;13.30;99.90
1225;DHT22;602;48.000;7.840;2022-12-24T07:56:51;13.40;99.90
1225;DHT22;602;48.000;7.840;2022-12-24T07:59:19;13.40;99.90
1225;DHT22;602;48.000;7.840;2022-12-24T08:01:46;13.40;99.90
1225;DHT22;602;48.000;7.840;2022-12-24T08:04:14;13.40;99.90
1225;DHT22;602;48.000;7.840;2022-12-24T08:06:41;13.30;99.90
1225;DHT22;602;48.000;7.840;2022-12-24T08:09:08;13.40;99.90
1225;DHT22;602;48.000;7.840;2022-12-24T08:11:34;13.40;99.90
1225;DHT22;602;48.000;7.840;2022-12-24T08:14:01;13.40;99.90
1225;DHT22;602;48.000;7.840;2022-12-24T08:16:28;13.40;99.90
1225;DHT22;602;48.000;7.840;2022-12-24T08:18:55;13.40;99.90
1225;DHT22;602;48.000;7.840;2022-12-24T08:21:23;13.40;99.90
1225;DHT22;602;48.000;7.840;2022-12-24T08:23:50;13.40;99.90
1225;DHT22;602;48.000;7.840;2022-12-24T08:26:17;13.40;99.90
1225;DHT22;602;48.000;7.840;2022-12-24T08:28:44;13.50;99.90
1225;DHT22;602;48.000;7.840;2022-12-24T08:31:11;13.50;99.90
1225;DHT22;602;48.000;7.840;2022-12-24T08:33:40;13.50;99.90
1225;DHT22;602;48.000;7.840;2022-12-24T08:36:08;13.50;99.90
1225;DHT22;602;48.000;7.840;2022-12-24T08:38:36;13.50;99.90
1225;DHT22;602;48.000;7.840;2022-12-24T08:41:03;13.60;99.90
1225;DHT22;602;48.000;7.840;2022-12-24T08:43:30;13.60;99.90
1225;DHT22;602;48.000;7.840;2022-12-24T08:46:01;13.80;99.90
1225;DHT22;602;48.000;7.840;2022-12-24T08:48:28;13.90;99.90
1225;DHT22;602;48.000;7.840;2022-12-24T08:50:55;13.90;99.90
1225;DHT22;602;48.000;7.840;2022-12-24T08:53:22;14.10;99.90
1225;DHT22;602;48.000;7.840;2022-12-24T08:55:50;14.20;99.90
1225;DHT22;602;48.000;7.840;2022-12-24T08:58:17;14.40;99.90
1225;DHT22;602;48.000;7.840;2022-12-24T09:00:44;14.40;99.90
1225;DHT22;602;48.000;7.840;2022-12-24T09:03:13;14.40;99.90
1225;DHT22;602;48.000;7.840;2022-12-24T09:05:47;14.40;99.90
1225;DHT22;602;48.000;7.840;2022-12-24T09:08:14;14.60;99.90
1225;DHT22;602;48.000;7.840;2022-12-24T09:10:43;14.60;99.90
1225;DHT22;602;48.000;7.840;2022-12-24T09:13:16;14.80;99.90
1225;DHT22;602;48.000;7.840;2022-12-24T09:15:52;14.90;99.90
1225;DHT22;602;48.000;7.840;2022-12-24T09:18:19;15.10;99.90
1225;DHT22;602;48.000;7.840;2022-12-24T09:20:46;15.30;99.90
1225;DHT22;602;48.000;7.840;2022-12-24T09:23:13;15.40;99.90
1225;DHT22;602;48.000;7.840;2022-12-24T09:25:40;15.50;99.90
1225;DHT22;602;48.000;7.840;2022-12-24T09:28:07;15.50;99.90
1225;DHT22;602;48.000;7.840;2022-12-24T09:30:36;15.60;99.90
1225;DHT22;602;48.000;7.840;2022-12-24T09:33:03;15.60;99.90
1225;DHT22;602;48.000;7.840;2022-12-24T09:35:30;15.60;99.90
1225;DHT22;602;48.000;7.840;2022-12-24T09:37:56;15.70;99.90
1225;DHT22;602;48.000;7.840;2022-12-24T09:40:32;15.60;99.90
1225;DHT22;602;48.000;7.840;2022-12-24T09:43:01;15.60;99.90
1225;DHT22;602;48.000;7.840;2022-12-24T09:45:31;15.40;99.90
1225;DHT22;602;48.000;7.840;2022-12-24T09:48:07;15.30;99.90
1225;DHT22;602;48.000;7.840;2022-12-24T09:50:39;15.30;99.90
1225;DHT22;602;48.000;7.840;2022-12-24T09:53:14;15.30;99.90
1225;DHT22;602;48.000;7.840;2022-12-24T09:55:45;15.00;99.90
1225;DHT22;602;48.000;7.840;2022-12-24T09:58:19;15.00;99.90
1225;DHT22;602;48.000;7.840;2022-12-24T10:00:47;15.00;99.90
1225;DHT22;602;48.000;7.840;2022-12-24T10:03:17;15.00;99.90
1225;DHT22;602;48.000;7.840;2022-12-24T10:05:50;15.10;99.90
1225;DHT22;602;48.000;7.840;2022-12-24T10:08:26;15.10;99.90
1225;DHT22;602;48.000;7.840;2022-12-24T10:10:59;15.00;99.90
1225;DHT22;602;48.000;7.840;2022-12-24T10:13:38;14.90;99.90
1225;DHT22;602;48.000;7.840;2022-12-24T10:16:13;15.00;99.90
1225;DHT22;602;48.000;7.840;2022-12-24T10:18:52;15.00;99.90
1225;DHT22;602;48.000;7.840;2022-12-24T10:21:27;15.10;99.90
1225;DHT22;602;48.000;7.840;2022-12-24T10:24:02;15.10;99.90
1225;DHT22;602;48.000;7.840;2022-12-24T10:26:36;15.10;99.90
1225;DHT22;602;48.000;7.840;2022-12-24T10:29:10;15.10;99.90
1225;DHT22;602;48.000;7.840;2022-12-24T10:31:45;15.20;99.90
1225;DHT22;602;48.000;7.840;2022-12-24T10:34:18;15.20;99.90
1225;DHT22;602;48.000;7.840;2022-12-24T10:36:47;15.40;99.90
1225;DHT22;602;48.000;7.840;2022-12-24T10:39:17;15.30;99.90
1225;DHT22;602;48.000;7.840;2022-12-24T10:41:46;15.30;99.90
1225;DHT22;602;48.000;7.840;2022-12-24T10:44:16;15.20;99.90
1225;DHT22;602;48.000;7.840;2022-12-24T10:46:46;15.20;99.90
1225;DHT22;602;48.000;7.840;2022-12-24T10:49:15;15.20;99.90
1225;DHT22;602;48.000;7.840;2022-12-24T10:51:46;15.20;99.90
1225;DHT22;602;48.000;7.840;2022-12-24T10:54:17;15.20;99.90
1225;DHT22;602;48.000;7.840;2022-12-24T10:56:46;15.30;99.90
1225;DHT22;602;48.000;7.840;2022-12-24T10:59:26;15.50;99.90
1225;DHT22;602;48.000;7.840;2022-12-24T11:01:55;15.80;99.90
1225;DHT22;602;48.000;7.840;2022-12-24T11:04:25;16.00;99.90
1225;DHT22;602;48.000;7.840;2022-12-24T11:06:55;16.10;99.90
1225;DHT22;602;48.000;7.840;2022-12-24T11:09:24;16.20;99.90
1225;DHT22;602;48.000;7.840;2022-12-24T11:11:51;16.20;99.90
1225;DHT22;602;48.000;7.840;2022-12-24T11:14:20;16.40;99.90
1225;DHT22;602;48.000;7.840;2022-12-24T11:16:52;16.60;99.90
1225;DHT22;602;48.000;7.840;2022-12-24T11:19:28;16.70;99.90
1225;DHT22;602;48.000;7.840;2022-12-24T11:22:02;16.70;99.90
1225;DHT22;602;48.000;7.840;2022-12-24T11:24:32;16.80;99.90
1225;DHT22;602;48.000;7.840;2022-12-24T11:27:30;16.90;99.90
1225;DHT22;602;48.000;7.840;2022-12-24T11:30:27;16.90;99.90
1225;DHT22;602;48.000;7.840;2022-12-24T11:33:18;17.20;99.90
1225;DHT22;602;48.000;7.840;2022-12-24T11:35:50;17.30;99.90
1225;DHT22;602;48.000;7.840;2022-12-24T11:38:20;17.30;99.90
1225;DHT22;602;48.000;7.840;2022-12-24T11:40:50;17.30;99.90
1225;DHT22;602;48.000;7.840;2022-12-24T11:43:22;17.10;99.90
1225;DHT22;602;48.000;7.840;2022-12-24T11:45:51;17.00;99.90
1225;DHT22;602;48.000;7.840;2022-12-24T11:48:27;17.00;99.90
1225;DHT22;602;48.000;7.840;2022-12-24T11:50:58;17.00;99.90
1225;DHT22;602;48.000;7.840;2022-12-24T11:53:28;17.10;99.90
1225;DHT22;602;48.000;7.840;2022-12-24T11:55:58;17.20;99.90
1225;DHT22;602;48.000;7.840;2022-12-24T11:58:31;17.20;99.90
1225;DHT22;602;48.000;7.840;2022-12-24T12:01:09;17.20;99.90
1225;DHT22;602;48.000;7.840;2022-12-24T12:03:42;17.10;99.90
1225;DHT22;602;48.000;7.840;2022-12-24T12:06:26;17.20;99.90
1225;DHT22;602;48.000;7.840;2022-12-24T12:08:57;17.10;99.90
1225;DHT22;602;48.000;7.840;2022-12-24T12:11:25;17.00;99.90
1225;DHT22;602;48.000;7.840;2022-12-24T12:13:56;17.00;99.90
1225;DHT22;602;48.000;7.840;2022-12-24T12:16:28;17.10;99.90
1225;DHT22;602;48.000;7.840;2022-12-24T12:19:16;17.00;99.90
1225;DHT22;602;48.000;7.840;2022-12-24T12:21:47;16.80;99.90
1225;DHT22;602;48.000;7.840;2022-12-24T12:24:18;16.80;99.90
1225;DHT22;602;48.000;7.840;2022-12-24T12:26:48;16.70;99.90
1225;DHT22;602;48.000;7.840;2022-12-24T12:29:25;16.70;99.90
1225;DHT22;602;48.000;7.840;2022-12-24T12:31:56;16.70;99.90
1225;DHT22;602;48.000;7.840;2022-12-24T12:34:30;16.70;99.90
1225;DHT22;602;48.000;7.840;2022-12-24T12:37:05;16.60;99.90
1225;DHT22;602;48.000;7.840;2022-12-24T12:39:35;16.40;99.90
1225;DHT22;602;48.000;7.840;2022-12-24T12:42:10;16.20;99.90
1225;DHT22;602;48.000;7.840;2022-12-24T12:44:55;16.20;99.90
1225;DHT22;602;48.000;7.840;2022-12-24T12:47:44;16.20;99.90
1225;DHT22;602;48.000;7.840;2022-12-24T12:50:21;16.20;99.90
1225;DHT22;602;48.000;7.840;2022-12-24T12:53:06;16.20;99.90
1225;DHT22;602;48.000;7.840;2022-12-24T12:55:44;16.30;99.90
1225;DHT22;602;48.000;7.840;2022-12-24T12:58:16;16.10;99.90
1225;DHT22;602;48.000;7.840;2022-12-24T13:00:49;16.20;99.90
1225;DHT22;602;48.000;7.840;2022-12-24T13:03:56;16.10;99.90
1225;DHT22;602;48.000;7.840;2022-12-24T13:06:50;16.10;99.90
1225;DHT22;602;48.000;7.840;2022-12-24T13:09:47;16.20;99.90
1225;DHT22;602;48.000;7.840;2022-12-24T13:12:36;16.20;99.90
1225;DHT22;602;48.000;7.840;2022-12-24T13:15:32;16.20;99.90
1225;DHT22;602;48.000;7.840;2022-12-24T13:18:38;16.00;99.90
1225;DHT22;602;48.000;7.840;2022-12-24T13:21:15;15.80;99.90
1225;DHT22;602;48.000;7.840;2022-12-24T13:23:42;15.70;99.90
1225;DHT22;602;48.000;7.840;2022-12-24T13:26:12;15.70;99.90
1225;DHT22;602;48.000;7.840;2022-12-24T13:28:40;15.50;99.90
1225;DHT22;602;48.000;7.840;2022-12-24T13:31:26;15.60;99.90
1225;DHT22;602;48.000;7.840;2022-12-24T13:34:02;15.60;99.90
1225;DHT22;602;48.000;7.840;2022-12-24T13:37:00;15.60;99.90
1225;DHT22;602;48.000;7.840;2022-12-24T13:39:27;15.50;99.90
1225;DHT22;602;48.000;7.840;2022-12-24T13:41:55;15.60;99.90
1225;DHT22;602;48.000;7.840;2022-12-24T13:44:27;15.50;99.90
1225;DHT22;602;48.000;7.840;2022-12-24T13:47:21;15.50;99.90
1225;DHT22;602;48.000;7.840;2022-12-24T13:49:51;15.60;99.90
1225;DHT22;602;48.000;7.840;2022-12-24T13:52:27;15.50;99.90
1225;DHT22;602;48.000;7.840;2022-12-24T13:55:13;15.60;99.90
1225;DHT22;602;48.000;7.840;2022-12-24T13:57:51;15.60;99.90
1225;DHT22;602;48.000;7.840;2022-12-24T14:00:30;15.60;99.90
1225;DHT22;602;48.000;7.840;2022-12-24T14:03:01;15.60;99.90
1225;DHT22;602;48.000;7.840;2022-12-24T14:05:33;15.60;99.90
1225;DHT22;602;48.000;7.840;2022-12-24T14:08:04;15.50;99.90
1225;DHT22;602;48.000;7.840;2022-12-24T14:10:38;15.40;99.90
1225;DHT22;602;48.000;7.840;2022-12-24T14:16:14;15.50;99.90
1225;DHT22;602;48.000;7.840;2022-12-24T14:18:45;15.60;99.90
1225;DHT22;602;48.000;7.840;2022-12-24T14:21:16;15.70;99.90
1225;DHT22;602;48.000;7.840;2022-12-24T14:23:48;15.70;99.90
1225;DHT22;602;48.000;7.840;2022-12-24T14:26:19;15.60;99.90
1225;DHT22;602;48.000;7.840;2022-12-24T14:28:52;15.60;99.90
1225;DHT22;602;48.000;7.840;2022-12-24T14:31:21;15.40;99.90
1225;DHT22;602;48.000;7.840;2022-12-24T14:33:47;15.50;99.90
1225;DHT22;602;48.000;7.840;2022-12-24T14:36:19;15.50;99.90
1225;DHT22;602;48.000;7.840;2022-12-24T14:38:47;15.50;99.90
1225;DHT22;602;48.000;7.840;2022-12-24T14:41:29;15.40;99.90
1225;DHT22;602;48.000;7.840;2022-12-24T14:44:06;15.40;99.90
1225;DHT22;602;48.000;7.840;2022-12-24T14:46:41;15.40;99.90
1225;DHT22;602;48.000;7.840;2022-12-24T14:49:20;15.40;99.90
1225;DHT22;602;48.000;7.840;2022-12-24T14:51:58;15.40;99.90
1225;DHT22;602;48.000;7.840;2022-12-24T14:54:32;15.30;99.90
1225;DHT22;602;48.000;7.840;2022-12-24T14:57:17;15.30;99.90
1225;DHT22;602;48.000;7.840;2022-12-24T14:59:48;15.20;99.90
1225;DHT22;602;48.000;7.840;2022-12-24T15:02:24;15.20;99.90
1225;DHT22;602;48.000;7.840;2022-12-24T15:05:07;15.20;99.90
1225;DHT22;602;48.000;7.840;2022-12-24T15:07:36;15.20;99.90
1225;DHT22;602;48.000;7.840;2022-12-24T15:10:20;15.20;99.90
1225;DHT22;602;48.000;7.840;2022-12-24T15:12:49;15.30;99.90
1225;DHT22;602;48.000;7.840;2022-12-24T15:15:18;15.20;99.90
1225;DHT22;602;48.000;7.840;2022-12-24T15:17:46;15.30;99.90
1225;DHT22;602;48.000;7.840;2022-12-24T15:20:16;15.20;99.90
1225;DHT22;602;48.000;7.840;2022-12-24T15:22:44;15.20;99.90
1225;DHT22;602;48.000;7.840;2022-12-24T15:25:20;15.20;99.90
1225;DHT22;602;48.000;7.840;2022-12-24T15:27:47;15.20;99.90
1225;DHT22;602;48.000;7.840;2022-12-24T15:30:16;15.20;99.90
1225;DHT22;602;48.000;7.840;2022-12-24T15:32:45;15.20;99.90
1225;DHT22;602;48.000;7.840;2022-12-24T15:35:32;15.20;99.90
1225;DHT22;602;48.000;7.840;2022-12-24T15:38:00;15.10;99.90
1225;DHT22;602;48.000;7.840;2022-12-24T15:40:28;15.00;99.90
1225;DHT22;602;48.000;7.840;2022-12-24T15:42:58;15.00;99.90
1225;DHT22;602;48.000;7.840;2022-12-24T15:45:27;15.00;99.90
1225;DHT22;602;48.000;7.840;2022-12-24T15:47:59;15.00;99.90
1225;DHT22;602;48.000;7.840;2022-12-24T15:50:29;15.00;99.90
1225;DHT22;602;48.000;7.840;2022-12-24T15:53:00;14.90;99.90
1225;DHT22;602;48.000;7.840;2022-12-24T15:55:30;14.80;99.90
1225;DHT22;602;48.000;7.840;2022-12-24T15:57:57;14.80;99.90
1225;DHT22;602;48.000;7.840;2022-12-24T16:00:28;14.80;99.90
1225;DHT22;602;48.000;7.840;2022-12-24T16:03:11;14.80;99.90
1225;DHT22;602;48.000;7.840;2022-12-24T16:05:42;14.80;99.90
1225;DHT22;602;48.000;7.840;2022-12-24T16:08:23;14.80;99.90
1225;DHT22;602;48.000;7.840;2022-12-24T16:10:52;14.80;99.90
1225;DHT22;602;48.000;7.840;2022-12-24T16:13:23;14.90;99.90
1225;DHT22;602;48.000;7.840;2022-12-24T16:15:56;14.80;99.90
1225;DHT22;602;48.000;7.840;2022-12-24T16:18:31;14.80;99.90
1225;DHT22;602;48.000;7.840;2022-12-24T16:20:59;14.80;99.90
1225;DHT22;602;48.000;7.840;2022-12-24T16:23:31;14.80;99.90
1225;DHT22;602;48.000;7.840;2022-12-24T16:25:59;14.80;99.90
1225;DHT22;602;48.000;7.840;2022-12-24T16:28:26;14.80;99.90
1225;DHT22;602;48.000;7.840;2022-12-24T16:30:54;14.80;99.90
1225;DHT22;602;48.000;7.840;2022-12-24T16:33:21;14.70;99.90
1225;DHT22;602;48.000;7.840;2022-12-24T16:35:50;14.80;99.90
1225;DHT22;602;48.000;7.840;2022-12-24T16:38:17;14.70;99.90
1225;DHT22;602;48.000;7.840;2022-12-24T16:40:44;14.70;99.90
1225;DHT22;602;48.000;7.840;2022-12-24T16:43:11;14.70;99.90
1225;DHT22;602;48.000;7.840;2022-12-24T16:45:59;14.50;99.90
1225;DHT22;602;48.000;7.840;2022-12-24T16:48:26;14.50;99.90
1225;DHT22;602;48.000;7.840;2022-12-24T16:50:55;14.50;99.90